createdAt,value
2023-05-17T00:01:06.284Z,98487.00
2023-05-17T00:03:40.517Z,98492.00
2023-05-17T00:06:14.765Z,98494.00
2023-05-17T00:08:48.958Z,98495.00
2023-05-17T00:11:23.155Z,98510.00
2023-05-17T00:13:58.732Z,98512.00
2023-05-17T00:16:32.924Z,98505.00
2023-05-17T00:19:07.202Z,98505.00
2023-05-17T00:21:41.531Z,98517.00
2023-05-17T00:24:16.467Z,98508.00
2023-05-17T00:26:50.686Z,98509.00
2023-05-17T00:29:26.229Z,98506.00
2023-05-17T00:32:00.530Z,98511.00
2023-05-17T00:34:34.791Z,98514.00
2023-05-17T00:37:08.988Z,98521.00
2023-05-17T00:39:43.099Z,98518.00
2023-05-17T00:42:17.378Z,98510.00
2023-05-17T00:44:52.916Z,98506.00
2023-05-17T00:47:27.039Z,98500.00
2023-05-17T00:50:01.246Z,98504.00
2023-05-17T00:52:36.247Z,98509.00
2023-05-17T00:55:10.887Z,98523.00
2023-05-17T00:57:45.010Z,98527.00
2023-05-17T01:00:20.987Z,98522.00
2023-05-17T01:02:55.189Z,98518.00
2023-05-17T01:05:30.124Z,98521.00
2023-05-17T01:08:04.621Z,98525.00
2023-05-17T01:10:46.981Z,98529.00
2023-05-17T01:13:29.380Z,98522.00
2023-05-17T01:16:14.647Z,98539.00
2023-05-17T01:18:58.520Z,98531.00
2023-05-17T01:21:58.951Z,98538.00
2023-05-17T01:24:46.335Z,98546.00
2023-05-17T01:27:23.262Z,98542.00
2023-05-17T01:29:58.303Z,98550.00
2023-05-17T01:32:33.471Z,98548.00
2023-05-17T01:35:08.954Z,98546.00
2023-05-17T01:37:43.134Z,98550.00
2023-05-17T01:40:18.465Z,98556.00
2023-05-17T01:42:58.432Z,98554.00
2023-05-17T01:45:40.010Z,98561.00
2023-05-17T01:48:22.121Z,98552.00
2023-05-17T01:50:59.472Z,98559.00
2023-05-17T01:53:40.707Z,98562.00
2023-05-17T01:56:22.091Z,98569.00
2023-05-17T01:58:59.302Z,98556.00
2023-05-17T02:01:34.137Z,98559.00
2023-05-17T02:04:08.380Z,98566.00
2023-05-17T02:06:42.586Z,98564.00
2023-05-17T02:09:16.754Z,98567.00
2023-05-17T02:11:50.898Z,98563.00
2023-05-17T02:14:26.803Z,98571.00
2023-05-17T02:17:01.600Z,98572.00
2023-05-17T02:19:35.994Z,98572.00
2023-05-17T02:22:10.210Z,98572.00
2023-05-17T02:24:44.358Z,98574.00
2023-05-17T02:27:18.547Z,98566.00
2023-05-17T02:29:54.065Z,98581.00
2023-05-17T02:32:28.365Z,98569.00
2023-05-17T02:35:02.634Z,98581.00
2023-05-17T02:37:36.889Z,98579.00
2023-05-17T02:40:12.095Z,98590.00
2023-05-17T02:42:46.296Z,98576.00
2023-05-17T02:45:21.935Z,98578.00
2023-05-17T02:47:56.089Z,98578.00
2023-05-17T02:50:30.337Z,98575.00
2023-05-17T02:53:04.515Z,98584.00
2023-05-17T02:55:38.747Z,98576.00
2023-05-17T02:58:12.939Z,98585.00
2023-05-17T03:00:48.457Z,98584.00
2023-05-17T03:03:22.806Z,98579.00
2023-05-17T03:06:01.362Z,98577.00
2023-05-17T03:08:35.585Z,98582.00
2023-05-17T03:11:09.782Z,98581.00
2023-05-17T03:13:46.343Z,98589.00
2023-05-17T03:16:21.983Z,98588.00
2023-05-17T03:18:56.216Z,98589.00
2023-05-17T03:21:30.518Z,98581.00
2023-05-17T03:24:05.021Z,98599.00
2023-05-17T03:26:39.242Z,98596.00
2023-05-17T03:29:13.418Z,98601.00
2023-05-17T03:31:49.103Z,98602.00
2023-05-17T03:34:23.426Z,98608.00
2023-05-17T03:36:57.702Z,98594.00
2023-05-17T03:39:31.806Z,98602.00
2023-05-17T03:42:07.356Z,98607.00
2023-05-17T03:44:42.323Z,98599.00
2023-05-17T03:47:18.188Z,98608.00
2023-05-17T03:49:52.432Z,98606.00
2023-05-17T03:52:26.749Z,98608.00
2023-05-17T03:55:00.845Z,98605.00
2023-05-17T03:57:35.054Z,98613.00
2023-05-17T04:00:11.910Z,98619.00
2023-05-17T04:02:47.570Z,98614.00
2023-05-17T04:05:22.184Z,98617.00
2023-05-17T04:07:56.745Z,98624.00
2023-05-17T04:10:31.114Z,98626.00
2023-05-17T04:13:05.266Z,98622.00
2023-05-17T04:15:39.407Z,98630.00
2023-05-17T04:18:15.534Z,98634.00
2023-05-17T04:20:49.958Z,98641.00
2023-05-17T04:23:24.372Z,98641.00
2023-05-17T04:25:58.681Z,98642.00
2023-05-17T04:28:35.061Z,98644.00
2023-05-17T04:31:10.207Z,98650.00
2023-05-17T04:33:45.826Z,98653.00
2023-05-17T04:36:19.918Z,98658.00
2023-05-17T04:38:54.282Z,98651.00
2023-05-17T04:41:28.426Z,98656.00
2023-05-17T04:44:03.610Z,98663.00
2023-05-17T04:46:37.817Z,98661.00
2023-05-17T04:49:14.261Z,98669.00
2023-05-17T04:51:48.412Z,98672.00
2023-05-17T04:54:22.550Z,98680.00
2023-05-17T04:56:56.786Z,98681.00
2023-05-17T04:59:31.054Z,98684.00
2023-05-17T05:02:06.709Z,98689.00
2023-05-17T05:04:42.257Z,98681.00
2023-05-17T05:07:16.637Z,98692.00
2023-05-17T05:09:50.735Z,98689.00
2023-05-17T05:12:26.196Z,98693.00
2023-05-17T05:15:01.223Z,98701.00
2023-05-17T05:17:35.734Z,98703.00
2023-05-17T05:20:12.539Z,98711.00
2023-05-17T05:22:46.675Z,98714.00
2023-05-17T05:25:21.125Z,98729.00
2023-05-17T05:27:55.278Z,98716.00
2023-05-17T05:30:29.456Z,98720.00
2023-05-17T05:33:03.764Z,98728.00
2023-05-17T05:35:39.428Z,98723.00
2023-05-17T05:38:13.623Z,98723.00
2023-05-17T05:40:48.951Z,98724.00
2023-05-17T05:43:23.221Z,98737.00
2023-05-17T05:45:57.498Z,98737.00
2023-05-17T05:48:31.891Z,98740.00
2023-05-17T05:51:07.408Z,98738.00
2023-05-17T05:53:41.633Z,98745.00
2023-05-17T05:56:15.922Z,98739.00
2023-05-17T05:58:50.197Z,98743.00
2023-05-17T06:01:25.332Z,98747.00
2023-05-17T06:03:59.494Z,98758.00
2023-05-17T06:06:35.122Z,98758.00
2023-05-17T06:09:12.280Z,98760.00
2023-05-17T06:11:46.531Z,98762.00
2023-05-17T06:14:20.738Z,98766.00
2023-05-17T06:16:54.882Z,98764.00
2023-05-17T06:19:29.244Z,98763.00
2023-05-17T06:22:05.739Z,98774.00
2023-05-17T06:24:39.951Z,98769.00
2023-05-17T06:27:14.286Z,98776.00
2023-05-17T06:29:48.497Z,98774.00
2023-05-17T06:32:22.635Z,98769.00
2023-05-17T06:34:57.225Z,98764.00
2023-05-17T06:37:33.062Z,98781.00
2023-05-17T06:40:16.661Z,98782.00
2023-05-17T06:43:04.762Z,98774.00
2023-05-17T06:45:38.967Z,98786.00
2023-05-17T06:48:13.326Z,98780.00
2023-05-17T06:50:47.592Z,98787.00
2023-05-17T06:53:23.057Z,98783.00
2023-05-17T06:55:57.719Z,98783.00
2023-05-17T06:58:32.665Z,98786.00
2023-05-17T07:01:06.961Z,98784.00
2023-05-17T07:03:41.239Z,98791.00
2023-05-17T07:06:15.524Z,98786.00
2023-05-17T07:08:51.144Z,98778.00
2023-05-17T07:11:25.269Z,98794.00
2023-05-17T07:13:59.490Z,98796.00
2023-05-17T07:16:33.909Z,98797.00
2023-05-17T07:19:08.327Z,98787.00
2023-05-17T07:21:42.792Z,98787.00
2023-05-17T07:24:18.339Z,98786.00
2023-05-17T07:26:52.797Z,98785.00
2023-05-17T07:29:27.057Z,98803.00
2023-05-17T07:32:01.175Z,98795.00
2023-05-17T07:34:35.393Z,98798.00
2023-05-17T07:37:09.668Z,98797.00
2023-05-17T07:39:45.152Z,98809.00
2023-05-17T07:42:19.351Z,98794.00
2023-05-17T07:44:53.511Z,98801.00
2023-05-17T07:47:27.786Z,98799.00
2023-05-17T07:50:02.116Z,98796.00
2023-05-17T07:52:36.200Z,98799.00
2023-05-17T07:55:12.409Z,98800.00
2023-05-17T07:57:47.554Z,98787.00
2023-05-17T08:00:23.135Z,98804.00
2023-05-17T08:02:58.091Z,98799.00
2023-05-17T08:05:32.492Z,98802.00
2023-05-17T08:08:07.094Z,98807.00
2023-05-17T08:10:43.290Z,98808.00
2023-05-17T08:13:17.408Z,98804.00
2023-05-17T08:15:58.438Z,98816.00
2023-05-17T08:18:35.879Z,98812.00
2023-05-17T08:21:11.191Z,98813.00
2023-05-17T08:23:45.710Z,98806.00
2023-05-17T08:26:21.132Z,98804.00
2023-05-17T08:28:55.236Z,98811.00
2023-05-17T08:31:29.496Z,98808.00
2023-05-17T08:34:03.795Z,98804.00
2023-05-17T08:36:38.108Z,98814.00
2023-05-17T08:39:12.604Z,98809.00
2023-05-17T08:41:49.484Z,98813.00
2023-05-17T08:44:24.270Z,98813.00
2023-05-17T08:47:00.976Z,98802.00
2023-05-17T08:49:38.064Z,98815.00
2023-05-17T08:52:12.960Z,98819.00
2023-05-17T08:54:47.271Z,98821.00
2023-05-17T08:57:26.024Z,98822.00
2023-05-17T09:00:01.465Z,98812.00
2023-05-17T09:02:35.788Z,98809.00
2023-05-17T09:05:11.457Z,98817.00
2023-05-17T09:07:46.138Z,98815.00
2023-05-17T09:10:20.532Z,98811.00
2023-05-17T09:12:56.452Z,98815.00
2023-05-17T09:15:34.288Z,98823.00
2023-05-17T09:18:13.347Z,98818.00
2023-05-17T09:20:52.713Z,98814.00
2023-05-17T09:23:27.845Z,98813.00
2023-05-17T09:26:09.153Z,98819.00
2023-05-17T09:28:45.119Z,98810.00
2023-05-17T09:31:19.383Z,98818.00
2023-05-17T09:33:53.625Z,98810.00
2023-05-17T09:36:27.887Z,98814.00
2023-05-17T09:39:05.654Z,98821.00
2023-05-17T09:41:45.292Z,98823.00
2023-05-17T09:44:21.337Z,98824.00
2023-05-17T09:46:59.501Z,98825.00
2023-05-17T09:49:33.686Z,98826.00
2023-05-17T09:52:09.589Z,98826.00
2023-05-17T09:54:43.706Z,98828.00
2023-05-17T09:57:18.033Z,98826.00
2023-05-17T09:59:57.489Z,98823.00
2023-05-17T10:02:33.788Z,98824.00
2023-05-17T10:05:13.095Z,98824.00
2023-05-17T10:07:49.199Z,98826.00
2023-05-17T10:10:24.201Z,98833.00
2023-05-17T10:12:59.066Z,98826.00
2023-05-17T10:15:35.067Z,98831.00
2023-05-17T10:18:11.030Z,98831.00
2023-05-17T10:20:45.724Z,98822.00
2023-05-17T10:23:22.321Z,98830.00
2023-05-17T10:25:56.974Z,98832.00
2023-05-17T10:28:32.014Z,98837.00
2023-05-17T10:31:08.269Z,98838.00
2023-05-17T10:33:44.798Z,98843.00
2023-05-17T10:36:19.304Z,98838.00
2023-05-17T10:38:54.446Z,98838.00
2023-05-17T10:41:35.372Z,98844.00
2023-05-17T10:44:11.326Z,98841.00
2023-05-17T10:46:55.426Z,98839.00
2023-05-17T10:49:33.314Z,98834.00
2023-05-17T10:52:15.116Z,98836.00
2023-05-17T10:54:51.140Z,98840.00
2023-05-17T10:57:49.799Z,98833.00
2023-05-17T11:00:29.548Z,98833.00
2023-05-17T11:03:16.777Z,98839.00
2023-05-17T11:06:24.085Z,98836.00
2023-05-17T11:09:15.000Z,98842.00
2023-05-17T11:12:09.478Z,98835.00
2023-05-17T11:14:53.516Z,98832.00
2023-05-17T11:17:35.219Z,98828.00
2023-05-17T11:20:31.817Z,98832.00
2023-05-17T11:23:13.881Z,98821.00
2023-05-17T11:25:50.925Z,98826.00
2023-05-17T11:28:25.296Z,98830.00
2023-05-17T11:31:03.513Z,98818.00
2023-05-17T11:33:44.265Z,98831.00
2023-05-17T11:36:24.121Z,98826.00
2023-05-17T11:39:15.413Z,98820.00
2023-05-17T11:41:52.345Z,98819.00
2023-05-17T11:44:31.466Z,98826.00
2023-05-17T11:47:09.382Z,98820.00
2023-05-17T11:49:43.829Z,98815.00
2023-05-17T11:52:20.096Z,98821.00
2023-05-17T11:54:55.402Z,98817.00
2023-05-17T11:57:31.787Z,98815.00
2023-05-17T12:00:08.106Z,98815.00
2023-05-17T12:02:42.210Z,98816.00
2023-05-17T12:05:22.122Z,98814.00
2023-05-17T12:07:59.112Z,98821.00
2023-05-17T12:10:34.822Z,98823.00
2023-05-17T12:13:09.385Z,98811.00
2023-05-17T12:15:47.114Z,98818.00
2023-05-17T12:18:21.878Z,98813.00
2023-05-17T12:21:00.662Z,98823.00
2023-05-17T12:23:39.568Z,98811.00
2023-05-17T12:26:15.684Z,98816.00
2023-05-17T12:28:56.269Z,98814.00
2023-05-17T12:31:32.614Z,98805.00
2023-05-17T12:34:09.404Z,98812.00
2023-05-17T12:36:44.745Z,98804.00
2023-05-17T12:39:23.868Z,98810.00
2023-05-17T12:41:58.350Z,98812.00
2023-05-17T12:44:32.509Z,98809.00
2023-05-17T12:47:07.170Z,98807.00
2023-05-17T12:49:53.049Z,98810.00
2023-05-17T12:52:27.301Z,98827.00
2023-05-17T12:55:05.357Z,98822.00
2023-05-17T12:57:39.557Z,98818.00
2023-05-17T13:00:15.478Z,98822.00
2023-05-17T13:02:49.678Z,98816.00
2023-05-17T13:05:24.063Z,98820.00
2023-05-17T13:07:58.202Z,98828.00
2023-05-17T13:10:33.719Z,98814.00
2023-05-17T13:13:09.562Z,98816.00
2023-05-17T13:15:47.637Z,98826.00
2023-05-17T13:18:24.704Z,98809.00
2023-05-17T13:20:58.917Z,98811.00
2023-05-17T13:23:33.172Z,98812.00
2023-05-17T13:26:09.051Z,98818.00
2023-05-17T13:28:43.371Z,98818.00
2023-05-17T13:31:17.653Z,98817.00
2023-05-17T13:33:52.129Z,98815.00
2023-05-17T13:36:26.344Z,98820.00
2023-05-17T13:39:02.008Z,98817.00
2023-05-17T13:41:37.819Z,98820.00
2023-05-17T13:44:12.032Z,98823.00
2023-05-17T13:46:46.264Z,98811.00
2023-05-17T13:49:20.834Z,98826.00
2023-05-17T13:51:55.101Z,98818.00
2023-05-17T13:54:29.553Z,98820.00
2023-05-17T13:57:05.873Z,98821.00
2023-05-17T13:59:40.296Z,98820.00
2023-05-17T14:02:14.441Z,98815.00
2023-05-17T14:04:48.722Z,98815.00
2023-05-17T14:07:23.535Z,98827.00
2023-05-17T14:09:57.617Z,98825.00
2023-05-17T14:12:33.075Z,98826.00
2023-05-17T14:15:09.131Z,98835.00
2023-05-17T14:17:43.315Z,98829.00
2023-05-17T14:20:17.822Z,98830.00
2023-05-17T14:22:52.810Z,98829.00
2023-05-17T14:25:27.265Z,98825.00
2023-05-17T14:28:03.070Z,98827.00
2023-05-17T14:30:37.146Z,98834.00
2023-05-17T14:33:11.514Z,98836.00
2023-05-17T14:35:45.839Z,98837.00
2023-05-17T14:38:20.471Z,98824.00
2023-05-17T14:40:54.620Z,98835.00
2023-05-17T14:43:30.560Z,98831.00
2023-05-17T14:46:05.660Z,98839.00
2023-05-17T14:48:39.858Z,98833.00
2023-05-17T14:51:14.365Z,98843.00
2023-05-17T14:53:48.535Z,98829.00
2023-05-17T14:56:22.638Z,98830.00
2023-05-17T14:58:58.157Z,98847.00
2023-05-17T15:01:32.963Z,98838.00
2023-05-17T15:04:07.191Z,98829.00
2023-05-17T15:06:42.484Z,98835.00
2023-05-17T15:09:18.346Z,98823.00
2023-05-17T15:11:52.636Z,98832.00
2023-05-17T15:14:28.218Z,98832.00
2023-05-17T15:17:04.299Z,98836.00
2023-05-17T15:19:38.596Z,98832.00
2023-05-17T15:22:12.816Z,98830.00
2023-05-17T15:24:47.141Z,98824.00
2023-05-17T15:27:21.503Z,98837.00
2023-05-17T15:29:57.130Z,98825.00
2023-05-17T15:32:31.341Z,98832.00
2023-05-17T15:35:06.477Z,98839.00
2023-05-17T15:37:41.499Z,98832.00
2023-05-17T15:40:16.903Z,98843.00
2023-05-17T15:42:52.325Z,98839.00
2023-05-17T15:45:28.265Z,98842.00
2023-05-17T15:48:02.968Z,98835.00
2023-05-17T15:50:37.374Z,98838.00
2023-05-17T15:53:11.580Z,98837.00
2023-05-17T15:55:50.633Z,98838.00
2023-05-17T15:58:27.857Z,98833.00
2023-05-17T16:01:07.041Z,98839.00
2023-05-17T16:03:41.333Z,98840.00
2023-05-17T16:06:16.170Z,98846.00
2023-05-17T16:08:50.357Z,98846.00
2023-05-17T16:11:24.714Z,98844.00
2023-05-17T16:13:58.826Z,98843.00
2023-05-17T16:16:34.280Z,98841.00
2023-05-17T16:19:08.515Z,98838.00
2023-05-17T16:21:42.779Z,98838.00
2023-05-17T16:24:17.389Z,98843.00
2023-05-17T16:26:52.630Z,98847.00
2023-05-17T16:29:26.930Z,98835.00
2023-05-17T16:32:03.061Z,98851.00
2023-05-17T16:34:37.400Z,98834.00
2023-05-17T16:37:12.023Z,98836.00
2023-05-17T16:39:46.637Z,98841.00
2023-05-17T16:42:20.843Z,98826.00
2023-05-17T16:44:54.973Z,98838.00
2023-05-17T16:47:30.705Z,98826.00
2023-05-17T16:50:05.686Z,98822.00
2023-05-17T16:52:40.105Z,98838.00
2023-05-17T16:55:14.325Z,98831.00
2023-05-17T16:57:48.501Z,98829.00
2023-05-17T17:00:23.593Z,98835.00
2023-05-17T17:02:59.744Z,98840.00
2023-05-17T17:05:34.004Z,98838.00
2023-05-17T17:08:08.218Z,98836.00
2023-05-17T17:10:42.319Z,98834.00
2023-05-17T17:13:17.328Z,98831.00
2023-05-17T17:15:52.536Z,98837.00
2023-05-17T17:18:29.088Z,98837.00
2023-05-17T17:21:05.854Z,98842.00
2023-05-17T17:23:43.056Z,98836.00
2023-05-17T17:26:17.364Z,98836.00
2023-05-17T17:28:51.619Z,98836.00
2023-05-17T17:31:26.088Z,98839.00
2023-05-17T17:34:01.663Z,98839.00
2023-05-17T17:36:35.855Z,98832.00
2023-05-17T17:39:10.399Z,98834.00
2023-05-17T17:41:44.772Z,98835.00
2023-05-17T17:44:18.921Z,98839.00
2023-05-17T17:46:53.241Z,98842.00
2023-05-17T17:49:30.065Z,98847.00
2023-05-17T17:52:04.475Z,98844.00
2023-05-17T17:54:38.640Z,98844.00
2023-05-17T17:57:12.822Z,98841.00
2023-05-17T17:59:46.924Z,98841.00
2023-05-17T18:02:21.162Z,98844.00
2023-05-17T18:04:56.690Z,98841.00
2023-05-17T18:07:30.960Z,98834.00
2023-05-17T18:10:05.901Z,98842.00
2023-05-17T18:12:40.195Z,98842.00
2023-05-17T18:15:14.550Z,98839.00
2023-05-17T18:17:51.368Z,98845.00
2023-05-17T18:20:27.342Z,98851.00
2023-05-17T18:23:01.589Z,98843.00
2023-05-17T18:25:36.668Z,98842.00
2023-05-17T18:28:10.833Z,98843.00
2023-05-17T18:30:44.922Z,98843.00
2023-05-17T18:33:19.101Z,98847.00
2023-05-17T18:35:54.707Z,98837.00
2023-05-17T18:38:28.802Z,98847.00
2023-05-17T18:41:03.129Z,98840.00
2023-05-17T18:43:37.244Z,98840.00
2023-05-17T18:46:12.321Z,98844.00
2023-05-17T18:48:46.411Z,98850.00
2023-05-17T18:51:21.976Z,98847.00
2023-05-17T18:53:56.176Z,98850.00
2023-05-17T18:56:32.667Z,98851.00
2023-05-17T18:59:06.728Z,98850.00
2023-05-17T19:01:40.950Z,98845.00
2023-05-17T19:04:15.569Z,98855.00
2023-05-17T19:06:51.083Z,98850.00
2023-05-17T19:09:25.213Z,98856.00
2023-05-17T19:11:59.468Z,98857.00
2023-05-17T19:14:33.650Z,98850.00
2023-05-17T19:17:09.239Z,98858.00
2023-05-17T19:19:43.375Z,98854.00
2023-05-17T19:22:18.859Z,98859.00
2023-05-17T19:24:52.926Z,98851.00
2023-05-17T19:27:27.534Z,98856.00
2023-05-17T19:30:01.749Z,98846.00
2023-05-17T19:32:35.898Z,98855.00
2023-05-17T19:35:11.277Z,98862.00
2023-05-17T19:37:46.730Z,98862.00
2023-05-17T19:40:22.237Z,98855.00
2023-05-17T19:42:56.341Z,98851.00
2023-05-17T19:45:30.800Z,98852.00
2023-05-17T19:48:08.033Z,98857.00
2023-05-17T19:50:42.341Z,98862.00
2023-05-17T19:53:17.810Z,98856.00
2023-05-17T19:55:51.972Z,98849.00
2023-05-17T19:58:26.285Z,98853.00
2023-05-17T20:01:00.453Z,98860.00
2023-05-17T20:03:34.806Z,98847.00
2023-05-17T20:06:11.317Z,98855.00
2023-05-17T20:08:47.129Z,98854.00
2023-05-17T20:11:21.631Z,98847.00
2023-05-17T20:13:55.931Z,98848.00
2023-05-17T20:16:30.963Z,98856.00
2023-05-17T20:19:05.295Z,98851.00
2023-05-17T20:21:40.947Z,98857.00
2023-05-17T20:24:16.488Z,98857.00
2023-05-17T20:26:51.006Z,98848.00
2023-05-17T20:29:26.397Z,98853.00
2023-05-17T20:32:00.879Z,98861.00
2023-05-17T20:34:35.226Z,98861.00
2023-05-17T20:37:09.585Z,98868.00
2023-05-17T20:39:45.389Z,98862.00
2023-05-17T20:42:20.375Z,98856.00
2023-05-17T20:44:54.856Z,98852.00
2023-05-17T20:47:29.288Z,98853.00
2023-05-17T20:50:04.488Z,98852.00
2023-05-17T20:52:39.822Z,98848.00
2023-05-17T20:55:15.841Z,98862.00
2023-05-17T20:57:50.021Z,98851.00
2023-05-17T21:00:24.748Z,98854.00
2023-05-17T21:02:59.082Z,98854.00
2023-05-17T21:05:36.157Z,98851.00
2023-05-17T21:08:12.817Z,98853.00
2023-05-17T21:10:48.386Z,98849.00
2023-05-17T21:13:23.951Z,98850.00
2023-05-17T21:15:58.343Z,98849.00
2023-05-17T21:18:32.492Z,98855.00
2023-05-17T21:21:06.815Z,98853.00
2023-05-17T21:23:41.083Z,98852.00
2023-05-17T21:26:16.623Z,98853.00
2023-05-17T21:28:50.891Z,98842.00
2023-05-17T21:31:25.074Z,98837.00
2023-05-17T21:33:59.371Z,98838.00
2023-05-17T21:36:33.519Z,98832.00
2023-05-17T21:39:07.715Z,98829.00
2023-05-17T21:41:43.296Z,98829.00
2023-05-17T21:44:17.420Z,98829.00
2023-05-17T21:46:51.695Z,98827.00
2023-05-17T21:49:25.943Z,98833.00
2023-05-17T21:52:00.254Z,98830.00
2023-05-17T21:54:34.399Z,98835.00
2023-05-17T21:57:10.294Z,98826.00
2023-05-17T21:59:44.397Z,98833.00
2023-05-17T22:02:18.758Z,98833.00
2023-05-17T22:04:52.946Z,98827.00
2023-05-17T22:07:27.190Z,98832.00
2023-05-17T22:10:02.286Z,98831.00
2023-05-17T22:12:38.424Z,98834.00
2023-05-17T22:15:13.644Z,98821.00
2023-05-17T22:17:52.197Z,98826.00
2023-05-17T22:20:29.297Z,98828.00
2023-05-17T22:23:04.368Z,98828.00
2023-05-17T22:25:38.754Z,98827.00
2023-05-17T22:28:14.217Z,98823.00
2023-05-17T22:30:48.575Z,98828.00
2023-05-17T22:33:23.552Z,98817.00
2023-05-17T22:35:58.767Z,98816.00
2023-05-17T22:38:32.886Z,98819.00
2023-05-17T22:41:07.153Z,98815.00
2023-05-17T22:43:42.616Z,98819.00
2023-05-17T22:46:17.321Z,98815.00
2023-05-17T22:48:52.715Z,98806.00
2023-05-17T22:51:30.111Z,98801.00
2023-05-17T22:54:04.403Z,98812.00
2023-05-17T22:56:38.562Z,98807.00
2023-05-17T22:59:14.028Z,98804.00
2023-05-17T23:01:48.224Z,98801.00
2023-05-17T23:04:26.262Z,98798.00
2023-05-17T23:07:02.320Z,98798.00
2023-05-17T23:09:37.997Z,98792.00
2023-05-17T23:12:14.014Z,98798.00
2023-05-17T23:14:49.699Z,98799.00
2023-05-17T23:17:24.093Z,98796.00
2023-05-17T23:19:58.979Z,98796.00
2023-05-17T23:22:33.969Z,98785.00
2023-05-17T23:25:09.042Z,98791.00
2023-05-17T23:27:44.318Z,98778.00
2023-05-17T23:30:19.890Z,98794.00
2023-05-17T23:32:55.340Z,98777.00
2023-05-17T23:35:29.831Z,98787.00
2023-05-17T23:38:07.103Z,98777.00
2023-05-17T23:40:41.794Z,98785.00
2023-05-17T23:43:15.907Z,98776.00
2023-05-17T23:45:51.473Z,98775.00
2023-05-17T23:48:26.084Z,98770.00
2023-05-17T23:51:00.180Z,98763.00
2023-05-17T23:53:34.511Z,98765.00
2023-05-17T23:56:09.014Z,98776.00
2023-05-17T23:58:43.113Z,98763.00
